createdAt,value
2022-08-09T00:01:26.614Z,101841.69
2022-08-09T00:06:18.879Z,101843.56
2022-08-09T00:09:31.250Z,101847.54
2022-08-09T00:13:02.301Z,101842.34
2022-08-09T00:16:17.683Z,101844.40
2022-08-09T00:20:08.065Z,101845.33
2022-08-09T00:23:54.571Z,101847.59
2022-08-09T00:27:43.219Z,101851.51
2022-08-09T00:31:58.242Z,101847.35
2022-08-09T00:35:15.628Z,101848.59
2022-08-09T00:38:57.280Z,101846.14
2022-08-09T00:44:13.883Z,101849.11
2022-08-09T00:46:44.058Z,101849.98
2022-08-09T00:50:19.720Z,101854.38
2022-08-09T00:54:08.558Z,101856.31
2022-08-09T00:57:59.330Z,101861.02
2022-08-09T01:00:59.284Z,101862.85
2022-08-09T01:04:35.817Z,101863.50
2022-08-09T01:08:30.510Z,101867.27
2022-08-09T01:12:23.045Z,101866.12
2022-08-09T01:16:14.864Z,101864.47
2022-08-09T01:19:39.938Z,101863.23
2022-08-09T01:24:02.044Z,101863.12
2022-08-09T01:28:01.342Z,101863.80
2022-08-09T01:31:23.347Z,101858.74
2022-08-09T01:35:29.205Z,101860.14
2022-08-09T01:39:17.681Z,101863.30
2022-08-09T01:42:58.108Z,101870.94
2022-08-09T01:46:47.920Z,101873.36
2022-08-09T01:50:18.071Z,101868.23
2022-08-09T01:54:18.946Z,101867.23
2022-08-09T01:58:10.640Z,101867.94
2022-08-09T02:01:59.278Z,101866.86
2022-08-09T02:05:37.752Z,101867.20
2022-08-09T02:09:14.518Z,101870.53
2022-08-09T02:12:56.307Z,101867.62
2022-08-09T02:16:06.664Z,101867.27
2022-08-09T02:19:38.638Z,101862.72
2022-08-09T02:23:17.851Z,101866.27
2022-08-09T02:26:58.897Z,101863.14
2022-08-09T02:30:47.874Z,101868.23
2022-08-09T02:34:41.705Z,101866.39
2022-08-09T02:38:28.619Z,101870.66
2022-08-09T02:42:24.817Z,101873.92
2022-08-09T02:45:56.520Z,101874.55
2022-08-09T02:49:45.303Z,101875.16
2022-08-09T02:53:56.678Z,101873.67
2022-08-09T02:57:25.246Z,101877.95
2022-08-09T03:00:58.467Z,101881.16
2022-08-09T03:04:43.164Z,101881.19
2022-08-09T03:08:32.095Z,101883.70
2022-08-09T03:12:20.095Z,101881.89
2022-08-09T03:16:10.108Z,101885.54
2022-08-09T03:19:57.913Z,101885.95
2022-08-09T03:23:38.158Z,101885.55
2022-08-09T03:27:17.238Z,101889.17
2022-08-09T03:31:21.121Z,101890.48
2022-08-09T03:35:24.903Z,101889.02
2022-08-09T03:39:15.125Z,101889.30
2022-08-09T03:42:48.594Z,101886.34
2022-08-09T03:46:37.510Z,101884.52
2022-08-09T03:50:11.685Z,101888.02
2022-08-09T03:53:51.179Z,101888.52
2022-08-09T03:57:32.445Z,101892.06
2022-08-09T04:01:33.664Z,101893.24
2022-08-09T04:04:52.726Z,101894.88
2022-08-09T04:08:40.732Z,101895.41
2022-08-09T04:11:58.470Z,101893.02
2022-08-09T04:16:18.208Z,101891.80
2022-08-09T04:19:56.170Z,101891.51
2022-08-09T04:23:29.102Z,101890.91
2022-08-09T04:27:21.952Z,101895.02
2022-08-09T04:31:13.073Z,101898.23
2022-08-09T04:34:47.787Z,101902.44
2022-08-09T04:38:45.051Z,101909.46
2022-08-09T04:42:22.745Z,101910.41
2022-08-09T04:46:36.380Z,101911.96
2022-08-09T04:49:55.782Z,101916.80
2022-08-09T04:53:45.156Z,101920.94
2022-08-09T04:57:14.322Z,101918.55
2022-08-09T05:00:56.175Z,101920.01
2022-08-09T05:04:31.423Z,101918.81
2022-08-09T05:08:14.025Z,101915.45
2022-08-09T05:12:04.087Z,101919.64
2022-08-09T05:15:39.385Z,101922.23
2022-08-09T05:19:26.110Z,101923.19
2022-08-09T05:23:54.845Z,101925.34
2022-08-09T05:26:59.372Z,101926.65
2022-08-09T05:30:36.522Z,101932.70
2022-08-09T05:34:31.357Z,101934.13
2022-08-09T05:37:59.843Z,101939.19
2022-08-09T05:41:48.764Z,101935.09
2022-08-09T05:45:53.026Z,101937.83
2022-08-09T05:50:30.447Z,101941.27
2022-08-09T05:53:57.665Z,101948.23
2022-08-09T05:57:56.400Z,101943.47
2022-08-09T06:01:25.681Z,101944.00
2022-08-09T06:04:44.408Z,101943.35
2022-08-09T06:08:19.322Z,101948.89
2022-08-09T06:12:14.412Z,101948.73
2022-08-09T06:16:04.852Z,101948.55
2022-08-09T06:19:54.499Z,101944.67
2022-08-09T06:23:55.655Z,101953.06
2022-08-09T06:27:51.492Z,101950.98
2022-08-09T06:32:08.386Z,101956.34
2022-08-09T06:35:35.862Z,101960.20
2022-08-09T06:39:57.808Z,101965.86
2022-08-09T06:43:34.446Z,101967.86
2022-08-09T06:47:24.024Z,101968.35
2022-08-09T06:51:10.135Z,101968.52
2022-08-09T06:54:59.366Z,101973.38
2022-08-09T07:00:49.734Z,101973.73
2022-08-09T07:02:51.791Z,101978.52
2022-08-09T07:06:40.611Z,101982.20
2022-08-09T07:10:32.289Z,101982.70
2022-08-09T07:14:05.240Z,101985.17
2022-08-09T07:18:02.145Z,101980.23
2022-08-09T07:21:32.183Z,101978.05
2022-08-09T07:25:23.291Z,101984.67
2022-08-09T07:29:01.275Z,101985.02
2022-08-09T07:32:58.640Z,101980.76
2022-08-09T07:36:42.692Z,101985.73
2022-08-09T07:41:00.517Z,101989.46
2022-08-09T07:44:52.512Z,101990.14
2022-08-09T07:48:43.117Z,101991.05
2022-08-09T07:52:35.811Z,101992.63
2022-08-09T07:56:03.517Z,101993.61
2022-08-09T07:59:45.695Z,101997.16
2022-08-09T08:03:13.772Z,101996.63
2022-08-09T08:06:56.156Z,101994.74
2022-08-09T08:10:38.598Z,101999.64
2022-08-09T08:14:37.698Z,102002.71
2022-08-09T08:18:27.018Z,102002.55
2022-08-09T08:21:50.919Z,102004.48
2022-08-09T08:25:24.313Z,102010.02
2022-08-09T08:29:39.555Z,102010.36
2022-08-09T08:33:40.647Z,102009.20
2022-08-09T08:37:59.608Z,102010.42
2022-08-09T08:41:52.472Z,102011.87
2022-08-09T08:45:37.154Z,102012.07
2022-08-09T08:49:38.905Z,102013.52
2022-08-09T08:53:37.379Z,102011.40
2022-08-09T08:57:26.752Z,102011.93
2022-08-09T09:01:25.044Z,102008.90
2022-08-09T09:05:59.117Z,102009.16
2022-08-09T09:09:41.108Z,102011.52
2022-08-09T09:13:34.823Z,102009.92
2022-08-09T09:17:48.900Z,102012.89
2022-08-09T09:21:43.419Z,102011.39
2022-08-09T09:26:03.807Z,102009.79
2022-08-09T09:30:10.608Z,102007.65
2022-08-09T09:34:14.699Z,102004.11
2022-08-09T09:38:03.160Z,102009.63
2022-08-09T09:41:50.873Z,102008.36
2022-08-09T09:45:56.982Z,102009.07
2022-08-09T09:50:15.258Z,102015.16
2022-08-09T09:54:14.251Z,102008.95
2022-08-09T09:58:24.542Z,102012.05
2022-08-09T10:02:20.356Z,102012.10
2022-08-09T10:06:10.270Z,102007.20
2022-08-09T10:10:03.289Z,102001.86
2022-08-09T10:13:53.049Z,101996.71
2022-08-09T10:17:39.429Z,101997.96
2022-08-09T10:21:49.708Z,101997.23
2022-08-09T10:26:04.183Z,101991.50
2022-08-09T10:30:49.262Z,101979.22
2022-08-09T10:34:11.492Z,101979.19
2022-08-09T10:38:02.438Z,101981.23
2022-08-09T10:41:52.218Z,101981.27
2022-08-09T10:45:49.295Z,101970.03
2022-08-09T10:50:00.331Z,101969.05
2022-08-09T10:53:54.520Z,101967.84
2022-08-09T10:57:51.818Z,101961.50
2022-08-09T11:03:11.613Z,101958.69
2022-08-09T11:06:00.127Z,101950.59
2022-08-09T11:09:50.539Z,101955.15
2022-08-09T11:13:54.805Z,101955.13
2022-08-09T11:17:41.746Z,101947.11
2022-08-09T11:21:41.412Z,101940.73
2022-08-09T11:25:47.893Z,101938.30
2022-08-09T11:30:05.681Z,101933.95
2022-08-09T11:33:30.547Z,101933.79
2022-08-09T11:37:19.153Z,101931.78
2022-08-09T11:41:09.139Z,101928.10
2022-08-09T11:44:57.144Z,101930.04
2022-08-09T11:48:52.655Z,101933.33
2022-08-09T11:53:00.983Z,101927.30
2022-08-09T11:56:55.403Z,101927.16
2022-08-09T12:00:33.599Z,101931.33
2022-08-09T12:04:32.473Z,101926.45
2022-08-09T12:08:30.583Z,101923.53
2022-08-09T12:12:29.230Z,101920.82
2022-08-09T12:16:30.652Z,101917.70
2022-08-09T12:20:10.688Z,101916.49
2022-08-09T12:24:09.530Z,101921.52
2022-08-09T12:29:13.168Z,101921.68
2022-08-09T12:32:02.118Z,101916.92
2022-08-09T12:35:40.034Z,101913.65
2022-08-09T12:39:29.930Z,101916.70
2022-08-09T12:44:06.554Z,101914.08
2022-08-09T12:47:05.401Z,101917.14
2022-08-09T12:50:37.570Z,101912.58
2022-08-09T12:54:25.156Z,101914.46
2022-08-09T12:58:24.446Z,101906.89
2022-08-09T13:02:23.681Z,101901.21
2022-08-09T13:06:25.291Z,101899.14
2022-08-09T13:10:26.935Z,101890.21
2022-08-09T13:14:42.486Z,101890.35
2022-08-09T13:18:35.867Z,101892.13
2022-08-09T13:22:38.180Z,101887.73
2022-08-09T13:26:40.915Z,101888.22
2022-08-09T13:30:51.225Z,101888.91
2022-08-09T13:34:42.030Z,101882.02
2022-08-09T13:38:46.073Z,101874.29
2022-08-09T13:42:44.073Z,101873.03
2022-08-09T13:47:16.779Z,101870.14
2022-08-09T13:50:31.293Z,101875.39
2022-08-09T13:54:15.237Z,101869.43
2022-08-09T13:58:02.916Z,101864.63
2022-08-09T14:02:02.256Z,101857.86
2022-08-09T14:06:00.247Z,101860.85
2022-08-09T14:09:53.137Z,101856.25
2022-08-09T14:14:15.718Z,101855.65
2022-08-09T14:18:18.799Z,101850.84
2022-08-09T14:21:47.641Z,101849.24
2022-08-09T14:25:43.034Z,101850.00
2022-08-09T14:30:34.036Z,101850.90
2022-08-09T14:33:43.662Z,101849.41
2022-08-09T14:38:02.590Z,101861.67
2022-08-09T14:41:40.415Z,101863.92
2022-08-09T14:44:59.561Z,101862.18
2022-08-09T14:48:29.727Z,101861.59
2022-08-09T14:52:09.947Z,101871.92
2022-08-09T14:55:59.635Z,101867.76
2022-08-09T14:59:48.689Z,101867.48
2022-08-09T15:03:38.929Z,101862.39
2022-08-09T15:07:12.084Z,101859.61
2022-08-09T15:11:07.081Z,101856.90
2022-08-09T15:14:57.395Z,101860.26
2022-08-09T15:18:49.912Z,101855.13
2022-08-09T15:22:26.075Z,101855.83
2022-08-09T15:26:18.843Z,101851.39
2022-08-09T15:30:58.149Z,101850.98
2022-08-09T15:34:18.007Z,101846.48
2022-08-09T15:37:56.882Z,101846.26
2022-08-09T15:41:55.041Z,101839.09
2022-08-09T15:46:07.703Z,101840.33
2022-08-09T15:50:03.449Z,101841.23
2022-08-09T15:54:05.973Z,101838.06
2022-08-09T15:57:57.471Z,101835.52
2022-08-09T16:01:53.327Z,101834.44
2022-08-09T16:05:53.395Z,101832.46
2022-08-09T16:09:51.390Z,101834.46
2022-08-09T16:14:03.100Z,101833.09
2022-08-09T16:17:56.581Z,101840.55
2022-08-09T16:21:51.843Z,101841.64
2022-08-09T16:25:39.780Z,101845.85
2022-08-09T16:29:12.691Z,101842.44
2022-08-09T16:32:53.189Z,101839.98
2022-08-09T16:36:27.769Z,101839.86
2022-08-09T16:39:10.325Z,101839.11
2022-08-09T16:42:45.006Z,101837.52
2022-08-09T16:46:34.924Z,101833.46
2022-08-09T16:50:33.479Z,101836.28
2022-08-09T16:54:26.046Z,101842.98
2022-08-09T16:58:10.103Z,101846.27
2022-08-09T17:01:51.112Z,101840.60
2022-08-09T17:06:06.706Z,101845.60
2022-08-09T17:09:53.391Z,101849.92
2022-08-09T17:14:01.830Z,101857.29
2022-08-09T17:17:27.782Z,101860.42
2022-08-09T17:20:52.426Z,101860.94
2022-08-09T17:24:47.847Z,101861.48
2022-08-09T17:28:16.475Z,101866.59
2022-08-09T17:32:07.618Z,101873.31
2022-08-09T17:36:05.715Z,101868.14
2022-08-09T17:39:28.049Z,101867.36
2022-08-09T17:43:34.889Z,101868.81
2022-08-09T17:47:26.469Z,101871.92
2022-08-09T17:51:20.116Z,101878.06
2022-08-09T17:54:59.887Z,101876.23
2022-08-09T17:58:51.081Z,101875.32
2022-08-09T18:02:41.302Z,101881.40
2022-08-09T18:06:14.809Z,101888.02
2022-08-09T18:10:18.120Z,101890.48
2022-08-09T18:14:12.543Z,101890.32
2022-08-09T18:18:08.128Z,101891.59
2022-08-09T18:21:48.445Z,101889.50
2022-08-09T18:25:15.461Z,101889.71
2022-08-09T18:30:42.198Z,101893.72
2022-08-09T18:32:47.086Z,101904.86
2022-08-09T18:36:08.013Z,101907.92
2022-08-09T18:39:45.375Z,101909.13
2022-08-09T18:43:38.744Z,101908.07
2022-08-09T18:47:27.599Z,101912.20
2022-08-09T18:51:03.069Z,101915.41
2022-08-09T18:54:33.678Z,101914.25
2022-08-09T18:58:32.263Z,101923.73
2022-08-09T19:02:15.483Z,101931.23
2022-08-09T19:06:04.098Z,101931.60
2022-08-09T19:10:16.708Z,101937.67
2022-08-09T19:14:03.288Z,101941.40
2022-08-09T19:17:58.657Z,101946.44
2022-08-09T19:22:04.876Z,101948.82
2022-08-09T19:26:02.202Z,101950.82
2022-08-09T19:30:21.309Z,101950.36
2022-08-09T19:34:02.479Z,101948.83
2022-08-09T19:37:17.262Z,101945.36
2022-08-09T19:41:06.536Z,101950.86
2022-08-09T19:44:51.294Z,101957.27
2022-08-09T19:49:02.519Z,101958.55
2022-08-09T19:52:20.512Z,101955.91
2022-08-09T19:56:06.689Z,101956.22
2022-08-09T19:59:59.175Z,101958.44
2022-08-09T20:04:16.614Z,101957.80
2022-08-09T20:08:06.089Z,101964.20
2022-08-09T20:11:51.864Z,101968.52
2022-08-09T20:16:33.521Z,101974.25
2022-08-09T20:19:54.698Z,101974.14
2022-08-09T20:23:21.154Z,101969.59
2022-08-09T20:27:05.430Z,101968.05
2022-08-09T20:30:58.281Z,101968.34
2022-08-09T20:34:31.707Z,101973.69
2022-08-09T20:38:22.383Z,101971.87
2022-08-09T20:41:58.265Z,101975.48
2022-08-09T20:46:01.865Z,101973.58
2022-08-09T20:49:29.953Z,101975.05
2022-08-09T20:53:35.236Z,101976.20
2022-08-09T20:57:32.388Z,101980.67
2022-08-09T21:01:13.623Z,101977.33
2022-08-09T21:05:51.901Z,101976.53
2022-08-09T21:08:54.874Z,101981.98
2022-08-09T21:15:56.141Z,101984.73
2022-08-09T21:20:17.158Z,101991.02
2022-08-09T21:23:47.500Z,101998.94
2022-08-09T21:27:52.639Z,102000.48
2022-08-09T21:35:50.831Z,102002.48
2022-08-09T21:38:57.958Z,101997.71
2022-08-09T21:42:47.802Z,102000.34
2022-08-09T21:46:33.909Z,101999.37
2022-08-09T21:50:25.328Z,102010.33
2022-08-09T21:54:16.639Z,102016.75
2022-08-09T21:58:01.880Z,102021.14
2022-08-09T22:01:58.588Z,102016.86
2022-08-09T22:05:51.363Z,102020.54
2022-08-09T22:09:30.228Z,102020.34
2022-08-09T22:13:15.070Z,102016.50
2022-08-09T22:16:40.397Z,102017.67
2022-08-09T22:20:01.915Z,102014.88
2022-08-09T22:23:26.564Z,102019.31
2022-08-09T22:26:47.874Z,102019.69
2022-08-09T22:30:31.298Z,102022.21
2022-08-09T22:34:15.645Z,102016.12
2022-08-09T22:38:06.708Z,102022.82
2022-08-09T22:41:34.384Z,102022.52
2022-08-09T22:48:11.600Z,102023.16
2022-08-09T22:48:43.403Z,102022.27
2022-08-09T22:52:30.898Z,102023.38
2022-08-09T22:56:30.807Z,102025.50
2022-08-09T23:00:00.843Z,102026.11
2022-08-09T23:04:03.993Z,102026.69
2022-08-09T23:07:16.376Z,102029.20
2022-08-09T23:10:44.133Z,102028.93
2022-08-09T23:14:41.775Z,102027.70
2022-08-09T23:18:31.277Z,102030.70
2022-08-09T23:21:39.629Z,102030.27
2022-08-09T23:24:42.654Z,102027.96
2022-08-09T23:28:15.611Z,102025.85
2022-08-09T23:31:59.372Z,102026.06
2022-08-09T23:35:25.145Z,102025.27
2022-08-09T23:38:26.592Z,102027.00
2022-08-09T23:41:28.295Z,102027.32
2022-08-09T23:45:10.213Z,102032.95
2022-08-09T23:49:11.404Z,102029.63
2022-08-09T23:52:40.580Z,102030.85
2022-08-09T23:55:49.704Z,102035.73
2022-08-09T23:59:02.201Z,102037.30
